createdAt,value
2019-04-07T00:01:51.596Z,8.07
2019-04-07T00:04:20.381Z,7.30
2019-04-07T00:06:48.398Z,7.37
2019-04-07T00:09:16.740Z,8.40
2019-04-07T00:11:45.217Z,6.10
2019-04-07T00:14:13.902Z,5.97
2019-04-07T00:19:19.001Z,6.65
2019-04-07T00:21:47.892Z,7.53
2019-04-07T00:24:15.700Z,6.40
2019-04-07T00:26:44.710Z,6.90
2019-04-07T00:29:12.461Z,7.78
2019-04-07T00:31:40.837Z,7.33
2019-04-07T00:34:09.634Z,8.77
2019-04-07T00:36:37.913Z,8.60
2019-04-07T00:41:40.323Z,8.77
2019-04-07T00:44:08.475Z,6.67
2019-04-07T00:49:11.609Z,8.23
2019-04-07T00:51:39.369Z,7.80
2019-04-07T00:54:08.364Z,6.23
2019-04-07T00:56:36.079Z,7.10
2019-04-07T00:59:04.441Z,6.90
2019-04-07T01:01:32.853Z,8.83
2019-04-07T01:04:01.222Z,7.70
2019-04-07T01:06:29.579Z,6.73
2019-04-07T01:11:32.271Z,7.70
2019-04-07T01:14:00.708Z,7.83
2019-04-07T01:16:29.406Z,6.90
2019-04-07T01:18:57.875Z,6.50
2019-04-07T01:21:25.661Z,7.17
2019-04-07T01:23:54.462Z,7.73
2019-04-07T01:26:22.759Z,7.67
2019-04-07T01:28:50.841Z,6.57
2019-04-07T01:31:19.761Z,7.80
2019-04-07T01:36:24.975Z,7.80
2019-04-07T01:38:53.297Z,8.95
2019-04-07T01:41:24.060Z,6.17
2019-04-07T01:43:57.917Z,15.53
2019-04-07T01:49:01.029Z,7.60
2019-04-07T01:57:05.972Z,7.80
2019-04-07T01:59:39.832Z,6.80
2019-04-07T02:04:58.233Z,7.70
2019-04-07T02:07:27.278Z,6.97
2019-04-07T02:10:05.429Z,6.47
2019-04-07T02:18:08.589Z,7.72
2019-04-07T02:20:52.154Z,6.87
2019-04-07T02:26:16.319Z,8.10
2019-04-07T02:37:41.268Z,7.87
2019-04-07T02:40:12.052Z,6.10
2019-04-07T02:42:40.927Z,7.90
2019-04-07T02:48:03.056Z,7.10
2019-04-07T02:50:36.855Z,6.73
2019-04-07T02:56:07.992Z,7.60
2019-04-07T02:58:35.833Z,7.90
2019-04-07T03:01:09.564Z,8.10
2019-04-07T03:03:36.974Z,6.20
2019-04-07T03:06:08.854Z,7.20
2019-04-07T03:08:38.528Z,6.37
2019-04-07T03:11:07.549Z,6.50
2019-04-07T03:16:32.920Z,8.13
2019-04-07T03:24:49.659Z,7.30
2019-04-07T03:27:33.897Z,6.60
2019-04-07T03:30:04.093Z,6.30
2019-04-07T03:32:37.458Z,6.73
2019-04-07T03:35:07.825Z,5.53
2019-04-07T03:40:38.133Z,7.50
2019-04-07T03:43:07.381Z,6.10
2019-04-07T03:45:39.181Z,6.50
2019-04-07T03:48:08.557Z,8.13
2019-04-07T03:50:40.777Z,7.20
2019-04-07T03:53:10.946Z,7.37
2019-04-07T03:55:41.331Z,8.20
2019-04-07T03:58:16.028Z,6.80
2019-04-07T04:01:06.832Z,7.47
2019-04-07T04:03:40.719Z,5.40
2019-04-07T04:06:12.803Z,6.53
2019-04-07T04:08:53.720Z,7.53
2019-04-07T04:11:32.430Z,6.37
2019-04-07T04:14:04.513Z,6.87
2019-04-07T04:16:32.133Z,5.90
2019-04-07T04:19:00.330Z,7.93
2019-04-07T04:21:28.893Z,7.60
2019-04-07T04:23:57.822Z,6.63
2019-04-07T04:26:25.601Z,7.37
2019-04-07T04:28:55.145Z,7.30
2019-04-07T04:31:22.538Z,6.40
2019-04-07T04:33:51.793Z,6.23
2019-04-07T04:36:19.308Z,7.50
2019-04-07T04:38:48.056Z,7.47
2019-04-07T04:41:16.872Z,7.77
2019-04-07T04:43:45.161Z,8.43
2019-04-07T04:46:13.565Z,7.30
2019-04-07T04:48:41.323Z,7.77
2019-04-07T04:51:09.791Z,7.20
2019-04-07T04:53:38.145Z,7.00
2019-04-07T04:58:40.694Z,8.32
2019-04-07T05:01:09.632Z,7.17
2019-04-07T05:03:38.245Z,7.17
2019-04-07T05:08:43.294Z,7.45
2019-04-07T05:11:11.444Z,8.80
2019-04-07T05:13:39.816Z,7.40
2019-04-07T05:16:08.338Z,6.97
2019-04-07T05:18:37.130Z,7.97
2019-04-07T05:21:05.244Z,8.35
2019-04-07T05:23:33.357Z,8.75
2019-04-07T05:26:01.655Z,8.00
2019-04-07T05:28:32.599Z,7.50
2019-04-07T05:30:59.097Z,8.20
2019-04-07T05:33:26.834Z,7.50
2019-04-07T05:38:30.223Z,9.70
2019-04-07T05:40:57.808Z,6.80
2019-04-07T05:43:26.200Z,7.13
2019-04-07T05:45:54.498Z,9.40
2019-04-07T05:48:22.855Z,7.40
2019-04-07T05:50:51.381Z,8.17
2019-04-07T05:53:19.574Z,8.75
2019-04-07T05:55:47.923Z,8.20
2019-04-07T05:58:16.282Z,8.50
2019-04-07T06:03:22.006Z,8.30
2019-04-07T06:05:51.088Z,9.27
2019-04-07T06:08:27.976Z,7.90
2019-04-07T06:10:48.057Z,10.38
2019-04-07T06:13:17.604Z,8.20
2019-04-07T06:20:55.168Z,9.18
2019-04-07T06:26:00.902Z,8.52
2019-04-07T06:28:30.329Z,9.23
2019-04-07T06:33:34.728Z,9.05
2019-04-07T06:36:02.886Z,9.13
2019-04-07T06:38:34.968Z,8.17
2019-04-07T06:41:02.878Z,7.53
2019-04-07T06:43:30.276Z,7.83
2019-04-07T06:46:17.507Z,8.27
2019-04-07T06:48:51.439Z,7.20
2019-04-07T06:51:21.484Z,7.50
2019-04-07T06:53:55.699Z,8.47
2019-04-07T06:56:24.243Z,8.53
2019-04-07T06:58:54.758Z,10.07
2019-04-07T07:01:25.795Z,9.90
2019-04-07T07:06:39.425Z,9.30
2019-04-07T07:09:15.497Z,9.10
2019-04-07T07:11:48.611Z,8.80
2019-04-07T07:16:57.384Z,9.98
2019-04-07T07:27:10.548Z,8.30
2019-04-07T07:32:11.574Z,8.57
2019-04-07T07:34:41.294Z,8.73
2019-04-07T07:37:08.347Z,8.73
2019-04-07T07:42:10.589Z,7.70
2019-04-07T07:44:39.750Z,9.27
2019-04-07T07:49:42.381Z,8.63
2019-04-07T07:52:10.356Z,8.75
2019-04-07T07:54:38.636Z,8.93
2019-04-07T07:57:06.864Z,10.93
2019-04-07T07:59:38.998Z,10.80
2019-04-07T08:02:03.453Z,12.83
2019-04-07T08:04:31.733Z,12.95
2019-04-07T08:07:02.419Z,11.80
2019-04-07T08:09:28.467Z,12.63
2019-04-07T08:11:57.820Z,12.30
2019-04-07T08:14:26.122Z,12.23
2019-04-07T08:16:55.392Z,17.20
2019-04-07T08:21:57.426Z,17.37
2019-04-07T08:24:26.156Z,17.77
2019-04-07T08:26:56.520Z,16.33
2019-04-07T08:29:22.495Z,14.73
2019-04-07T08:31:54.161Z,16.73
2019-04-07T08:34:19.286Z,16.43
2019-04-07T08:36:48.179Z,16.40
2019-04-07T08:39:22.720Z,18.43
2019-04-07T08:44:18.948Z,19.87
2019-04-07T08:51:57.002Z,22.00
2019-04-07T08:54:24.737Z,21.90
2019-04-07T08:56:56.280Z,19.00
2019-04-07T08:59:22.516Z,19.87
2019-04-07T09:01:52.737Z,22.10
2019-04-07T09:06:53.773Z,23.30
2019-04-07T09:09:31.372Z,21.20
2019-04-07T09:11:52.979Z,21.30
2019-04-07T09:16:59.117Z,22.40
2019-04-07T09:19:37.046Z,22.00
2019-04-07T09:22:10.516Z,22.97
2019-04-07T09:30:26.145Z,25.15
2019-04-07T09:35:56.651Z,25.43
2019-04-07T09:38:27.395Z,28.20
2019-04-07T09:43:30.606Z,26.90
2019-04-07T09:46:11.926Z,27.60
2019-04-07T09:51:19.711Z,25.97
2019-04-07T09:53:51.025Z,29.20
2019-04-07T09:58:53.610Z,28.80
2019-04-07T10:01:27.957Z,31.57
2019-04-07T10:06:30.776Z,27.33
2019-04-07T10:08:59.964Z,27.53
2019-04-07T10:11:28.486Z,26.70
2019-04-07T10:16:57.922Z,27.93
2019-04-07T10:19:39.128Z,28.17
2019-04-07T10:22:07.387Z,28.30
2019-04-07T10:24:37.473Z,31.50
2019-04-07T10:27:08.218Z,29.03
2019-04-07T10:29:41.512Z,28.10
2019-04-07T10:32:15.374Z,29.47
2019-04-07T10:34:45.054Z,26.30
2019-04-07T10:37:13.373Z,28.40
2019-04-07T10:42:10.361Z,31.55
2019-04-07T10:44:55.324Z,32.53
2019-04-07T10:47:23.945Z,29.30
2019-04-07T10:50:00.998Z,28.57
2019-04-07T10:52:41.680Z,29.43
2019-04-07T10:58:07.262Z,34.40
2019-04-07T11:00:45.256Z,35.53
2019-04-07T11:03:14.708Z,33.17
2019-04-07T11:05:55.975Z,33.30
2019-04-07T11:13:42.150Z,35.60
2019-04-07T11:16:11.677Z,35.63
2019-04-07T11:18:41.014Z,35.87
2019-04-07T11:24:08.939Z,33.58
2019-04-07T11:32:20.696Z,34.75
2019-04-07T11:34:53.410Z,33.33
2019-04-07T11:37:32.838Z,32.20
2019-04-07T11:43:00.525Z,33.58
2019-04-07T11:45:29.234Z,34.00
2019-04-07T11:51:26.039Z,33.65
2019-04-07T12:02:21.697Z,32.78
2019-04-07T12:04:52.018Z,32.67
2019-04-07T12:16:05.654Z,32.35
2019-04-07T12:21:20.736Z,31.47
2019-04-07T12:26:42.135Z,32.40
2019-04-07T12:31:44.235Z,33.25
2019-04-07T12:34:27.541Z,28.40
2019-04-07T12:45:26.602Z,30.20
2019-04-07T12:48:05.862Z,27.00
2019-04-07T12:50:35.631Z,26.60
2019-04-07T13:01:53.267Z,28.05
2019-04-07T13:07:17.098Z,28.05
2019-04-07T13:19:46.718Z,26.75
2019-04-07T13:24:48.745Z,25.85
2019-04-07T13:27:24.136Z,24.93
2019-04-07T13:35:50.875Z,21.90
2019-04-07T13:38:25.076Z,19.30
2019-04-07T13:40:53.111Z,19.00
2019-04-07T13:43:31.158Z,18.60
2019-04-07T13:51:36.524Z,19.00
2019-04-07T13:56:49.825Z,18.27
2019-04-07T13:59:19.456Z,16.90
2019-04-07T14:07:26.311Z,16.23
2019-04-07T14:09:57.098Z,17.30
2019-04-07T14:12:30.961Z,16.37
2019-04-07T14:14:57.047Z,16.83
2019-04-07T14:17:25.022Z,14.60
2019-04-07T14:22:28.873Z,17.15
2019-04-07T14:24:57.905Z,16.17
2019-04-07T14:27:36.222Z,15.83
2019-04-07T14:30:07.826Z,15.55
2019-04-07T14:32:39.592Z,14.80
2019-04-07T14:35:14.056Z,15.65
2019-04-07T14:37:49.435Z,13.80
2019-04-07T14:42:52.254Z,14.35
2019-04-07T14:45:27.068Z,13.75
2019-04-07T14:48:05.506Z,15.10
2019-04-07T14:53:35.540Z,15.75
2019-04-07T14:56:07.785Z,14.97
2019-04-07T14:58:38.024Z,14.23
2019-04-07T15:01:08.422Z,12.47
2019-04-07T15:03:36.350Z,13.43
2019-04-07T15:06:04.107Z,13.75
2019-04-07T15:08:33.246Z,11.67
2019-04-07T15:11:02.606Z,12.30
2019-04-07T15:16:04.500Z,12.70
2019-04-07T15:18:34.839Z,11.40
2019-04-07T15:23:38.478Z,12.48
2019-04-07T15:26:07.718Z,10.50
2019-04-07T15:28:35.371Z,10.77
2019-04-07T15:31:04.276Z,12.00
2019-04-07T15:36:08.906Z,11.80
2019-04-07T15:38:35.604Z,10.83
2019-04-07T15:41:07.748Z,9.93
2019-04-07T15:43:34.914Z,12.40
2019-04-07T15:46:00.160Z,11.70
2019-04-07T15:48:28.601Z,10.47
2019-04-07T15:51:00.807Z,10.60
2019-04-07T15:53:25.678Z,11.13
2019-04-07T15:56:01.973Z,11.00
2019-04-07T15:58:22.593Z,11.87
2019-04-07T16:00:51.595Z,12.17
2019-04-07T16:03:19.269Z,13.00
2019-04-07T16:08:27.253Z,13.50
2019-04-07T16:10:53.635Z,14.60
2019-04-07T16:13:21.732Z,14.10
2019-04-07T16:15:52.885Z,14.10
2019-04-07T16:18:18.972Z,13.20
2019-04-07T16:20:46.808Z,12.57
2019-04-07T16:23:18.325Z,13.93
2019-04-07T16:28:18.651Z,14.77
2019-04-07T16:30:50.169Z,14.50
2019-04-07T16:33:15.301Z,14.83
2019-04-07T16:35:43.979Z,14.63
2019-04-07T16:38:11.982Z,14.93
2019-04-07T16:40:42.085Z,14.77
2019-04-07T16:43:14.538Z,14.97
2019-04-07T16:48:11.526Z,13.77
2019-04-07T16:50:39.888Z,15.20
2019-04-07T16:55:46.613Z,16.70
2019-04-07T16:58:11.686Z,14.87
2019-04-07T17:00:39.873Z,15.23
2019-04-07T17:03:08.613Z,15.13
2019-04-07T17:05:37.520Z,15.03
2019-04-07T17:08:05.515Z,15.00
2019-04-07T17:10:35.291Z,16.98
2019-04-07T17:13:13.806Z,15.00
2019-04-07T17:15:31.639Z,14.23
2019-04-07T17:17:59.140Z,14.23
2019-04-07T17:20:28.425Z,13.70
2019-04-07T17:22:56.836Z,14.00
2019-04-07T17:25:25.457Z,14.37
2019-04-07T17:27:53.053Z,12.83
2019-04-07T17:30:24.916Z,12.90
2019-04-07T17:32:52.070Z,12.90
2019-04-07T17:35:19.118Z,12.70
2019-04-07T17:37:47.479Z,15.83
2019-04-07T17:42:52.698Z,15.13
2019-04-07T17:45:23.633Z,14.00
2019-04-07T17:47:53.124Z,12.50
2019-04-07T17:50:26.068Z,12.77
2019-04-07T17:55:33.125Z,15.20
2019-04-07T17:58:07.867Z,15.33
2019-04-07T18:00:41.077Z,14.07
2019-04-07T18:05:47.296Z,13.47
2019-04-07T18:08:15.894Z,14.70
2019-04-07T18:10:48.598Z,14.13
2019-04-07T18:15:51.025Z,13.80
2019-04-07T18:18:26.427Z,13.27
2019-04-07T18:23:34.816Z,13.47
2019-04-07T18:26:04.239Z,15.20
2019-04-07T18:28:39.155Z,13.90
2019-04-07T18:31:22.108Z,13.37
2019-04-07T18:33:55.108Z,12.53
2019-04-07T18:36:25.738Z,12.97
2019-04-07T18:39:00.396Z,12.33
2019-04-07T18:41:35.723Z,11.40
2019-04-07T18:44:08.608Z,12.37
2019-04-07T18:46:39.953Z,12.57
2019-04-07T18:49:13.304Z,10.90
2019-04-07T18:51:46.638Z,12.90
2019-04-07T18:56:47.496Z,12.10
2019-04-07T18:59:20.144Z,11.97
2019-04-07T19:01:47.357Z,9.30
2019-04-07T19:12:10.564Z,11.23
2019-04-07T19:14:44.272Z,10.77
2019-04-07T19:17:24.433Z,12.43
2019-04-07T19:22:25.976Z,13.10
2019-04-07T19:27:35.282Z,12.43
2019-04-07T19:30:05.887Z,11.57
2019-04-07T19:32:36.870Z,18.80
2019-04-07T19:38:14.271Z,17.53
2019-04-07T19:43:33.076Z,16.77
2019-04-07T19:48:44.936Z,14.70
2019-04-07T19:51:26.358Z,15.97
2019-04-07T19:53:58.017Z,13.73
2019-04-07T20:01:40.814Z,13.60
2019-04-07T20:04:14.656Z,12.67
2019-04-07T20:18:06.002Z,13.00
2019-04-07T20:20:46.882Z,13.20
2019-04-07T20:23:17.368Z,12.30
2019-04-07T20:25:49.210Z,11.90
2019-04-07T20:28:17.437Z,13.40
2019-04-07T20:30:49.754Z,13.50
2019-04-07T20:33:38.062Z,12.57
2019-04-07T20:36:20.095Z,14.37
2019-04-07T20:38:46.493Z,13.53
2019-04-07T20:41:24.340Z,13.87
2019-04-07T20:43:57.592Z,12.80
2019-04-07T20:46:30.554Z,12.93
2019-04-07T20:51:37.102Z,14.32
2019-04-07T20:54:07.678Z,13.98
2019-04-07T20:56:41.972Z,12.87
2019-04-07T21:02:10.937Z,14.45
2019-04-07T21:07:35.869Z,14.48
2019-04-07T21:10:10.903Z,12.00
2019-04-07T21:15:23.642Z,14.65
2019-04-07T21:17:42.319Z,13.93
2019-04-07T21:20:21.256Z,13.40
2019-04-07T21:22:54.976Z,13.40
2019-04-07T21:25:25.150Z,13.80
2019-04-07T21:27:54.741Z,13.33
2019-04-07T21:33:09.425Z,14.65
2019-04-07T21:35:53.596Z,13.47
2019-04-07T21:38:26.190Z,12.70
2019-04-07T21:40:55.561Z,12.30
2019-04-07T21:43:29.362Z,14.03
2019-04-07T21:54:04.104Z,14.70
2019-04-07T21:56:34.729Z,13.73
2019-04-07T21:59:07.619Z,11.60
2019-04-07T22:01:37.769Z,12.50
2019-04-07T22:04:05.015Z,13.70
2019-04-07T22:09:24.632Z,14.48
2019-04-07T22:14:26.667Z,14.55
2019-04-07T22:16:56.828Z,13.27
2019-04-07T22:19:24.411Z,14.70
2019-04-07T22:21:55.001Z,13.50
2019-04-07T22:24:21.912Z,12.40
2019-04-07T22:26:50.254Z,12.03
2019-04-07T22:29:18.244Z,10.60
2019-04-07T22:31:47.989Z,14.13
2019-04-07T22:34:16.555Z,13.00
2019-04-07T22:36:46.774Z,13.38
2019-04-07T22:39:14.100Z,12.00
2019-04-07T22:41:42.654Z,11.47
2019-04-07T22:44:11.324Z,12.10
2019-04-07T22:46:39.596Z,12.03
2019-04-07T22:49:07.565Z,11.23
2019-04-07T22:51:38.095Z,13.27
2019-04-07T22:54:05.778Z,11.97
2019-04-07T22:56:38.124Z,12.17
2019-04-07T22:59:04.227Z,11.30
2019-04-07T23:01:35.458Z,11.43
2019-04-07T23:06:38.326Z,14.20
2019-04-07T23:09:06.151Z,12.63
2019-04-07T23:11:35.469Z,10.57
2019-04-07T23:14:03.109Z,11.23
2019-04-07T23:16:31.670Z,12.03
2019-04-07T23:19:02.589Z,14.93
2019-04-07T23:21:30.028Z,14.00
2019-04-07T23:23:58.394Z,13.43
2019-04-07T23:26:26.743Z,13.97
2019-04-07T23:28:56.059Z,11.80
2019-04-07T23:31:24.340Z,13.40
2019-04-07T23:33:52.679Z,13.07
2019-04-07T23:36:21.028Z,12.43
2019-04-07T23:38:49.628Z,14.77
2019-04-07T23:41:18.097Z,16.27
2019-04-07T23:43:46.058Z,18.40
2019-04-07T23:46:22.846Z,15.87
2019-04-07T23:48:43.798Z,23.38
2019-04-07T23:51:12.304Z,20.50
